WSSSWMKC

Guest
Details From WSSS - Singapore Changi Intl. Airport
To WMKC - Kota Bahru Sultan Ismail Petra
Flight Number -
Tags decoded
Created
Modified
Stats Distance 307 nm / 568 km
Max Altitude 0 ft / 0 m
Waypoints 2
Social Downloads 0
Likes 0
Share VATSIM

Download

Looking for another format? Having issues loading an existing format? Contact us
Advertisement - Login to hide

Notes

Requested: WSSS VPK WMKC Unmatched points: VPK

Route

WSSS WMKC

ID Type Via Altitude (ft/m) Position (lat/lon) Dist (leg/tot) Name
O WSSS APT - 0 / 0 1.35192 / 103.99560 - / 0 nm Singapore Changi Intl. Airport
O WMKC APT - 0 / 0 6.16685 / 102.29301 306 / 306 nm Kota Bahru Sultan Ismail Petra

Altitude Profile

Advertisement - Login to hide

Weather


0- 5 10 15 20 25 30 35+ Temperature / °C

Clouds and Precipitation
Forecast for 2018-10-21 00:00 UTC. Updated 2 hours ago

Ground ~20,000 ft ~40,000 ft Winds

WSSS

Details ICAO WSSS (SIN)
Name Singapore Changi
Region Singapore
Timezone Asia/Singapore (UTC+8.0)
Stats Elevation 22 ft / 7 m (AMSL)
Location 1.355610° 103.988000°
Runways 2
Magnetic Variation 0.224° E

METAR

WSSS 202300Z 13007KT 090V150 9999 FEW020TCU BKN300 28/25 Q1012 NOSIG

Decode

TAF

TAF WSSS 201100Z 2012/2118 16008KT 9999 FEW018CB SCT020 TEMPO 2103/2107 3000 TSRA FEW012CB BKN015

Decode

Departure Runways

ID Width Length Bearing (true/mag) Surface Threshold Overrun Markings Lighting
02C 197 ft / 60 m 13,196 ft / 4,022 m 22.85° / 22.63° ASPHALT 0 ft / 0 m 197 ft / 60 m PREC-APP CENTERLINE EDGE THRESHOLD ALSF-I REIL-OMNI
02L 197 ft / 60 m 13,187 ft / 4,019 m 22.86° / 22.63° ASPHALT 0 ft / 0 m 197 ft / 60 m PREC-APP CENTERLINE EDGE THRESHOLD ALSF-II TDZ REIL-OMNI
20C 197 ft / 60 m 13,196 ft / 4,022 m 202.85° / 202.63° ASPHALT 0 ft / 0 m 217 ft / 66 m PREC-APP CENTERLINE EDGE THRESHOLD ALSF-II TDZ REIL-OMNI
20R 197 ft / 60 m 13,187 ft / 4,019 m 202.86° / 202.63° ASPHALT 2,428 ft / 740 m 197 ft / 60 m PREC-APP CENTERLINE EDGE THRESHOLD ALSF-I REIL-OMNI

WMKC

Details ICAO WMKC (KBR)
Name Kota Bahru Sultan Ismail Petra
Region Malaysia (Peninsular Malaysia)
Timezone Asia/Kuala_Lumpur (UTC+8.0)
Stats Elevation 16 ft / 5 m (AMSL)
Location 6.166420° 102.296000°
Runways 1
Magnetic Variation 0.117° W

METAR

WMKC 202300Z 24004KT 190V290 9999 TS FEW017CB SCT020 BKN280 25/23 Q1012

Decode

TAF

Not found

Destination Runways

ID Width Length Bearing (true/mag) Surface Threshold Overrun Markings Lighting
10 148 ft / 45 m 7,881 ft / 2,402 m 99.71° / 99.82° ASPHALT 0 ft / 0 m 489 ft / 149 m PREC-APP EDGE THRESHOLD CALVERT
28 148 ft / 45 m 7,881 ft / 2,402 m 279.71° / 279.83° ASPHALT 0 ft / 0 m 0 ft / 0 m APP EDGE THRESHOLD MALS

Approach Navaids

Runway Type Ident Frequency Range Bearing (true/mag) Slope Elevation
10 GS IKB 109.30 MHz 10 nm / 19 km 100.46° / 100.57 ° 3.00° 16 ft / 5 m (AMSL)
10 DME IKB 109.30 MHz 18 nm / 33 km - - 16 ft / 5 m (AMSL)
10 LOC-ILS IKB 109.30 MHz 18 nm / 33 km 99.59° / 99.71 ° - 16 ft / 5 m (AMSL)

Popular Alternatives